createdAt,value
2024-02-15T00:02:13.760Z,101025.17
2024-02-15T00:07:15.586Z,101024.84
2024-02-15T00:12:17.274Z,101029.27
2024-02-15T00:17:19.391Z,101031.11
2024-02-15T00:22:22.290Z,101030.96
2024-02-15T00:27:23.848Z,101024.81
2024-02-15T00:32:25.392Z,101022.08
2024-02-15T00:37:27.419Z,101026.34
2024-02-15T00:42:28.960Z,101026.84
2024-02-15T00:47:30.624Z,101027.36
2024-02-15T00:52:32.444Z,101026.48
2024-02-15T00:57:34.036Z,101032.44
2024-02-15T01:02:36.995Z,101028.69
2024-02-15T01:07:38.644Z,101029.02
2024-02-15T01:12:40.781Z,101026.98
2024-02-15T01:17:42.496Z,101019.48
2024-02-15T01:22:45.545Z,101016.21
2024-02-15T01:27:48.158Z,101018.63
2024-02-15T01:32:49.987Z,101015.72
2024-02-15T01:37:51.645Z,101011.27
2024-02-15T01:42:53.232Z,101010.42
2024-02-15T01:47:55.525Z,101004.27
2024-02-15T01:52:58.840Z,100999.52
2024-02-15T01:58:02.880Z,100995.77
2024-02-15T02:03:06.778Z,100991.83
2024-02-15T02:08:10.823Z,100989.63
2024-02-15T02:13:12.843Z,100985.52
2024-02-15T02:18:14.575Z,100982.62
2024-02-15T02:23:19.907Z,100982.80
2024-02-15T02:28:22.694Z,100989.96
2024-02-15T02:33:26.600Z,100988.09
2024-02-15T02:38:28.958Z,100983.98
2024-02-15T02:43:30.572Z,100984.34
2024-02-15T02:48:32.679Z,100978.70
2024-02-15T02:53:34.469Z,100979.19
2024-02-15T02:58:36.165Z,100974.73
2024-02-15T03:03:39.448Z,100977.45
2024-02-15T03:08:41.242Z,100984.41
2024-02-15T03:13:45.272Z,100987.50
2024-02-15T03:18:47.698Z,100983.42
2024-02-15T03:23:49.512Z,100985.28
2024-02-15T03:28:51.985Z,100981.33
2024-02-15T03:33:54.513Z,100976.91
2024-02-15T03:38:57.148Z,100979.80
2024-02-15T03:44:00.154Z,100980.31
2024-02-15T03:49:02.506Z,100981.67
2024-02-15T03:54:05.721Z,100987.13
2024-02-15T03:59:08.295Z,100986.79
2024-02-15T04:04:10.796Z,100984.92
2024-02-15T04:09:13.843Z,100983.55
2024-02-15T04:14:15.500Z,100980.14
2024-02-15T04:19:17.120Z,100982.01
2024-02-15T04:24:18.774Z,100983.55
2024-02-15T04:29:23.038Z,100983.55
2024-02-15T04:34:24.653Z,100984.41
2024-02-15T04:39:28.279Z,100983.19
2024-02-15T04:44:29.850Z,100984.37
2024-02-15T04:49:31.517Z,100989.65
2024-02-15T04:54:33.942Z,100987.41
2024-02-15T04:59:36.889Z,100987.73
2024-02-15T05:04:38.865Z,100987.69
2024-02-15T05:09:40.472Z,100991.25
2024-02-15T05:14:44.060Z,100991.29
2024-02-15T05:19:46.330Z,100995.89
2024-02-15T05:24:48.065Z,100997.60
2024-02-15T05:29:49.652Z,100995.23
2024-02-15T05:34:51.291Z,101000.49
2024-02-15T05:39:55.072Z,101002.84
2024-02-15T05:44:56.649Z,101004.04
2024-02-15T05:49:58.553Z,101004.88
2024-02-15T05:55:00.176Z,101005.55
2024-02-15T06:00:13.328Z,101006.10
2024-02-15T06:05:23.124Z,101012.61
2024-02-15T06:10:24.900Z,101009.05
2024-02-15T06:15:27.568Z,101016.08
2024-02-15T06:20:31.226Z,101016.98
2024-02-15T06:25:33.444Z,101023.52
2024-02-15T06:30:53.745Z,101024.57
2024-02-15T06:36:13.893Z,101031.55
2024-02-15T06:41:15.490Z,101031.96
2024-02-15T06:46:17.364Z,101034.21
2024-02-15T06:51:19.048Z,101040.54
2024-02-15T06:56:21.689Z,101041.74
2024-02-15T07:01:26.412Z,101039.37
2024-02-15T07:06:29.567Z,101044.04
2024-02-15T07:11:34.249Z,101047.19
2024-02-15T07:16:35.852Z,101052.89
2024-02-15T07:21:39.431Z,101049.37
2024-02-15T07:26:40.994Z,101046.16
2024-02-15T07:31:42.638Z,101046.02
2024-02-15T07:36:44.541Z,101043.28
2024-02-15T07:41:46.117Z,101045.36
2024-02-15T07:46:49.577Z,101041.27
2024-02-15T07:51:54.438Z,101042.32
2024-02-15T07:56:56.218Z,101041.84
2024-02-15T08:01:59.226Z,101039.70
2024-02-15T08:07:00.862Z,101041.37
2024-02-15T08:12:05.043Z,101045.20
2024-02-15T08:17:09.294Z,101049.83
2024-02-15T08:22:10.970Z,101053.07
2024-02-15T08:27:12.595Z,101055.14
2024-02-15T08:32:15.673Z,101057.23
2024-02-15T08:37:17.613Z,101052.48
2024-02-15T08:42:26.276Z,101051.48
2024-02-15T08:47:28.285Z,101049.98
2024-02-15T08:52:29.845Z,101044.08
2024-02-15T08:57:32.512Z,101049.79
2024-02-15T09:02:34.233Z,101057.20
2024-02-15T09:07:37.795Z,101063.55
2024-02-15T09:12:41.271Z,101072.94
2024-02-15T09:17:44.911Z,101076.34
2024-02-15T09:22:50.072Z,101076.35
2024-02-15T09:27:52.944Z,101074.48
2024-02-15T09:32:54.663Z,101077.58
2024-02-15T09:37:57.420Z,101082.05
2024-02-15T09:43:01.084Z,101082.25
2024-02-15T09:48:08.532Z,101084.98
2024-02-15T09:53:10.890Z,101085.66
2024-02-15T09:58:13.930Z,101079.17
2024-02-15T10:03:21.437Z,101076.46
2024-02-15T10:08:24.349Z,101073.23
2024-02-15T10:13:25.942Z,101069.13
2024-02-15T10:18:27.637Z,101063.14
2024-02-15T10:23:29.225Z,101063.47
2024-02-15T10:28:31.054Z,101060.20
2024-02-15T10:33:33.149Z,101055.91
2024-02-15T10:38:35.583Z,101050.38
2024-02-15T10:43:42.928Z,101047.61
2024-02-15T10:48:48.456Z,101047.20
2024-02-15T10:54:04.976Z,101049.70
2024-02-15T10:59:14.990Z,101047.10
2024-02-15T11:04:22.568Z,101037.08
2024-02-15T11:09:26.275Z,101030.00
2024-02-15T11:14:33.044Z,101026.47
2024-02-15T11:19:41.735Z,101019.00
2024-02-15T11:24:55.771Z,101016.39
2024-02-15T11:30:16.793Z,101016.48
2024-02-15T11:35:19.746Z,101015.30
2024-02-15T11:40:30.353Z,101011.20
2024-02-15T11:45:35.605Z,101008.24
2024-02-15T11:50:38.250Z,101007.88
2024-02-15T11:55:41.336Z,100999.80
2024-02-15T12:01:02.115Z,100997.15
2024-02-15T12:06:22.738Z,100992.25
2024-02-15T12:11:43.253Z,100997.27
2024-02-15T12:17:03.371Z,100991.09
2024-02-15T12:22:06.397Z,100991.96
2024-02-15T12:27:08.449Z,100990.61
2024-02-15T12:32:10.114Z,100990.15
2024-02-15T12:37:12.204Z,100990.73
2024-02-15T12:42:13.962Z,100994.75
2024-02-15T12:47:26.201Z,100999.15
2024-02-15T12:52:40.200Z,101002.86
2024-02-15T12:57:44.335Z,101004.94
2024-02-15T13:02:48.716Z,100999.14
2024-02-15T13:07:51.693Z,100996.92
2024-02-15T13:12:54.557Z,101002.11
2024-02-15T13:17:56.977Z,101004.39
2024-02-15T13:23:02.997Z,101005.27
2024-02-15T13:28:05.588Z,101002.02
2024-02-15T13:33:07.408Z,100998.48
2024-02-15T13:38:16.387Z,100997.15
2024-02-15T13:43:18.682Z,100995.27
2024-02-15T13:48:20.387Z,100993.52
2024-02-15T13:53:25.103Z,100986.67
2024-02-15T13:58:27.679Z,100980.52
2024-02-15T14:03:30.405Z,100976.41
2024-02-15T14:08:32.103Z,100974.02
2024-02-15T14:13:33.671Z,100970.58
2024-02-15T14:18:36.063Z,100972.50
2024-02-15T14:23:38.235Z,100967.88
2024-02-15T14:28:43.438Z,100966.98
2024-02-15T14:33:45.129Z,100978.98
2024-02-15T14:38:48.012Z,100988.64
2024-02-15T14:43:49.754Z,100987.86
2024-02-15T14:48:51.362Z,100982.42
2024-02-15T14:53:52.960Z,100987.40
2024-02-15T14:58:56.198Z,100993.94
2024-02-15T15:03:59.275Z,100991.58
2024-02-15T15:09:19.883Z,101002.23
2024-02-15T15:14:21.669Z,101009.45
2024-02-15T15:19:23.382Z,101006.74
2024-02-15T15:24:25.216Z,101009.68
2024-02-15T15:29:28.313Z,101007.46
2024-02-15T15:34:31.215Z,101003.88
2024-02-15T15:39:35.680Z,101004.05
2024-02-15T15:44:38.117Z,101006.11
2024-02-15T15:49:40.523Z,101001.83
2024-02-15T15:54:42.150Z,101004.59
2024-02-15T15:59:44.840Z,101009.38
2024-02-15T16:04:48.337Z,101004.94
2024-02-15T16:09:51.004Z,101008.86
2024-02-15T16:14:52.667Z,101010.41
2024-02-15T16:19:54.292Z,101017.43
2024-02-15T16:24:56.001Z,101025.65
2024-02-15T16:29:57.538Z,101028.05
2024-02-15T16:35:03.697Z,101028.73
2024-02-15T16:40:09.396Z,101030.61
2024-02-15T16:45:13.236Z,101025.31
2024-02-15T16:50:15.139Z,101023.77
2024-02-15T16:55:18.317Z,101024.97
2024-02-15T17:00:26.469Z,101026.69
2024-02-15T17:05:29.393Z,101031.31
2024-02-15T17:10:31.793Z,101030.44
2024-02-15T17:15:38.497Z,101037.98
2024-02-15T17:20:40.136Z,101039.86
2024-02-15T17:25:41.804Z,101052.02
2024-02-15T17:30:46.002Z,101053.20
2024-02-15T17:35:50.654Z,101051.15
2024-02-15T17:40:53.366Z,101048.24
2024-02-15T17:45:55.145Z,101042.94
2024-02-15T17:50:56.767Z,101037.63
2024-02-15T17:56:00.930Z,101031.80
2024-02-15T18:01:02.674Z,101038.14
2024-02-15T18:06:04.833Z,101048.94
2024-02-15T18:11:09.164Z,101063.99
2024-02-15T18:16:12.911Z,101072.72
2024-02-15T18:21:14.498Z,101070.66
2024-02-15T18:26:16.276Z,101070.49
2024-02-15T18:31:18.633Z,101069.63
2024-02-15T18:36:20.326Z,101074.60
2024-02-15T18:41:21.899Z,101068.78
2024-02-15T18:46:23.496Z,101066.56
2024-02-15T18:51:26.904Z,101064.33
2024-02-15T18:56:28.479Z,101061.08
2024-02-15T19:01:30.072Z,101056.30
2024-02-15T19:06:41.263Z,101066.90
2024-02-15T19:11:43.130Z,101063.48
2024-02-15T19:16:48.504Z,101063.65
2024-02-15T19:21:50.581Z,101065.69
2024-02-15T19:26:52.343Z,101064.33
2024-02-15T19:31:54.148Z,101062.27
2024-02-15T19:37:04.362Z,101060.73
2024-02-15T19:42:09.839Z,101067.91
2024-02-15T19:47:13.587Z,101064.83
2024-02-15T19:52:16.883Z,101070.13
2024-02-15T19:57:18.669Z,101070.65
2024-02-15T20:02:20.441Z,101076.30
2024-02-15T20:07:29.608Z,101082.64
2024-02-15T20:12:35.495Z,101084.51
2024-02-15T20:17:37.892Z,101081.95
2024-02-15T20:22:42.657Z,101083.32
2024-02-15T20:27:44.912Z,101082.46
2024-02-15T20:32:46.812Z,101076.81
2024-02-15T20:37:48.422Z,101071.34
2024-02-15T20:42:50.038Z,101065.52
2024-02-15T20:47:51.743Z,101056.10
2024-02-15T20:52:53.588Z,101054.39
2024-02-15T20:57:55.187Z,101056.08
2024-02-15T21:02:56.816Z,101059.31
2024-02-15T21:07:59.479Z,101055.52
2024-02-15T21:13:01.649Z,101055.18
2024-02-15T21:18:03.426Z,101051.41
2024-02-15T21:23:06.843Z,101050.20
2024-02-15T21:28:09.187Z,101053.77
2024-02-15T21:33:11.214Z,101055.15
2024-02-15T21:38:12.910Z,101058.74
2024-02-15T21:43:14.594Z,101062.67
2024-02-15T21:48:16.287Z,101053.81
2024-02-15T21:53:18.786Z,101052.10
2024-02-15T21:58:20.439Z,101052.95
2024-02-15T22:03:23.947Z,101056.72
2024-02-15T22:08:25.622Z,101063.21
2024-02-15T22:13:27.163Z,101062.87
2024-02-15T22:18:29.026Z,101063.90
2024-02-15T22:23:32.019Z,101059.29
2024-02-15T22:28:33.658Z,101059.80
2024-02-15T22:33:35.642Z,101062.88
2024-02-15T22:38:37.330Z,101065.28
2024-02-15T22:43:38.918Z,101067.52
2024-02-15T22:48:42.638Z,101068.36
2024-02-15T22:53:45.738Z,101068.71
2024-02-15T22:58:47.397Z,101071.79
2024-02-15T23:03:48.933Z,101077.59
2024-02-15T23:08:50.550Z,101074.33
2024-02-15T23:13:52.285Z,101076.55
2024-02-15T23:18:53.943Z,101078.27
2024-02-15T23:23:57.312Z,101081.52
2024-02-15T23:28:59.389Z,101084.77
2024-02-15T23:34:01.145Z,101083.22
2024-02-15T23:39:21.645Z,101086.66
2024-02-15T23:44:34.636Z,101088.38
2024-02-15T23:49:37.013Z,101093.68
2024-02-15T23:54:39.391Z,101092.65
2024-02-15T23:59:41.073Z,101096.41
